Pownal, Vermont
Current Conditions -  °F | °C
As of 11:52 PM on Sunday 19 Oct 2014 (Local Time) from KAQW Reporting Station
Clear Clear  
Wind Chill: 31°   Ceiling: Unl
Heat Index: 36°   Visibility: 10mi
Dew Point: 24°   Wind: 6mph
Humidity: 62%   Direction: 240°WSW
Pressure: 30"   Gusts: NA
Location:  42.77°N, 73.23°W
Report Text: KAQW 200352Z AUTO 24005KT 10SM CLR 02/M04 A3000 RMK AO2 SLP166 T00221044
Loading
Personal Weather Stations






























Interactive Weather Map
Tropical Storm Tracking
New forecast layout! Learn more

10-Day Weather Forecast

Advertisements
Track Severe Weather on mobile